createdAt,value
2022-08-17T00:02:26.905Z,2.10
2022-08-17T00:05:32.606Z,2.10
2022-08-17T00:08:39.243Z,2.27
2022-08-17T00:11:43.960Z,2.37
2022-08-17T00:15:10.674Z,2.03
2022-08-17T00:18:57.427Z,2.40
2022-08-17T00:22:30.842Z,2.50
2022-08-17T00:24:59.511Z,1.93
2022-08-17T00:28:03.517Z,2.20
2022-08-17T00:31:08.080Z,2.20
2022-08-17T00:34:10.391Z,2.00
2022-08-17T00:37:12.331Z,2.10
2022-08-17T00:40:15.464Z,2.40
2022-08-17T00:43:31.200Z,2.10
2022-08-17T00:46:38.399Z,2.20
2022-08-17T00:49:40.579Z,2.33
2022-08-17T00:52:55.467Z,2.27
2022-08-17T00:56:01.179Z,2.30
2022-08-17T00:59:05.919Z,2.40
2022-08-17T01:02:09.985Z,2.40
2022-08-17T01:05:18.932Z,2.30
2022-08-17T01:08:24.960Z,2.23
2022-08-17T01:11:28.329Z,2.00
2022-08-17T01:14:30.528Z,2.20
2022-08-17T01:17:34.323Z,2.90
2022-08-17T01:20:48.094Z,2.03
2022-08-17T01:23:50.944Z,2.33
2022-08-17T01:26:53.055Z,2.10
2022-08-17T01:30:02.213Z,2.37
2022-08-17T01:33:04.652Z,2.30
2022-08-17T01:36:07.959Z,1.97
2022-08-17T01:39:17.643Z,2.30
2022-08-17T01:42:51.240Z,2.13
2022-08-17T01:46:03.559Z,1.80
2022-08-17T01:49:08.367Z,2.37
2022-08-17T01:52:11.833Z,2.10
2022-08-17T01:55:17.012Z,2.03
2022-08-17T01:58:20.518Z,2.27
2022-08-17T02:01:25.585Z,2.47
2022-08-17T02:04:27.664Z,2.37
2022-08-17T02:07:29.663Z,2.50
2022-08-17T02:10:33.884Z,2.30
2022-08-17T02:13:36.273Z,2.43
2022-08-17T02:16:40.712Z,2.67
2022-08-17T02:19:43.143Z,2.80
2022-08-17T02:22:46.807Z,2.27
2022-08-17T02:25:49.635Z,2.13
2022-08-17T02:28:51.573Z,2.20
2022-08-17T02:31:53.743Z,2.07
2022-08-17T02:34:59.469Z,2.10
2022-08-17T02:38:01.993Z,2.50
2022-08-17T02:41:04.810Z,2.20
2022-08-17T02:44:07.516Z,2.30
2022-08-17T02:47:11.009Z,2.40
2022-08-17T02:50:15.332Z,2.90
2022-08-17T02:53:17.369Z,2.97
2022-08-17T02:56:19.362Z,2.17
2022-08-17T02:59:21.723Z,2.77
2022-08-17T03:02:23.692Z,2.27
2022-08-17T03:05:28.034Z,2.20
2022-08-17T03:08:30.936Z,2.50
2022-08-17T03:11:33.390Z,2.33
2022-08-17T03:14:41.785Z,2.20
2022-08-17T03:17:44.921Z,2.67
2022-08-17T03:20:46.914Z,2.33
2022-08-17T03:23:48.922Z,2.10
2022-08-17T03:26:56.496Z,2.40
2022-08-17T03:29:58.558Z,2.17
2022-08-17T03:33:04.021Z,2.40
2022-08-17T03:36:07.172Z,2.23
2022-08-17T03:39:09.722Z,2.40
2022-08-17T03:42:32.028Z,2.20
2022-08-17T03:45:54.358Z,2.37
2022-08-17T03:49:15.659Z,2.50
2022-08-17T03:52:36.282Z,2.50
2022-08-17T03:55:57.457Z,2.53
2022-08-17T03:58:59.477Z,2.80
2022-08-17T04:02:11.460Z,2.20
2022-08-17T04:05:15.208Z,2.87
2022-08-17T04:08:17.178Z,1.97
2022-08-17T04:11:19.095Z,2.27
2022-08-17T04:14:21.554Z,2.10
2022-08-17T04:17:27.186Z,2.07
2022-08-17T04:20:29.683Z,2.40
2022-08-17T04:23:33.208Z,2.50
2022-08-17T04:26:53.248Z,2.53
2022-08-17T04:29:56.388Z,2.23
2022-08-17T04:33:06.075Z,2.50
2022-08-17T04:36:09.193Z,2.53
2022-08-17T04:39:11.913Z,2.87
2022-08-17T04:42:17.383Z,2.20
2022-08-17T04:45:19.402Z,2.37
2022-08-17T04:48:21.632Z,2.40
2022-08-17T04:51:35.058Z,2.77
2022-08-17T04:54:37.211Z,2.50
2022-08-17T04:57:44.565Z,2.33
2022-08-17T05:00:47.580Z,2.13
2022-08-17T05:03:49.599Z,2.40
2022-08-17T05:06:51.997Z,2.20
2022-08-17T05:09:53.928Z,2.37
2022-08-17T05:13:07.714Z,2.47
2022-08-17T05:16:12.265Z,2.33
2022-08-17T05:19:14.274Z,2.30
2022-08-17T05:22:16.172Z,2.70
2022-08-17T05:25:25.686Z,2.50
2022-08-17T05:28:28.193Z,2.27
2022-08-17T05:31:31.979Z,2.47
2022-08-17T05:34:34.254Z,2.47
2022-08-17T05:37:36.244Z,2.57
2022-08-17T05:40:38.948Z,2.80
2022-08-17T05:43:42.463Z,1.93
2022-08-17T05:46:50.077Z,2.30
2022-08-17T05:49:53.810Z,2.30
2022-08-17T05:53:07.626Z,2.53
2022-08-17T05:56:30.170Z,2.30
2022-08-17T05:59:48.485Z,2.37
2022-08-17T06:03:05.639Z,2.60
2022-08-17T06:06:33.899Z,2.40
2022-08-17T06:09:41.670Z,2.37
2022-08-17T06:13:06.229Z,2.50
2022-08-17T06:16:33.497Z,2.40
2022-08-17T06:19:51.821Z,2.43
2022-08-17T06:22:59.546Z,2.30
2022-08-17T06:26:25.907Z,2.33
2022-08-17T06:29:48.112Z,2.47
2022-08-17T06:32:52.330Z,2.27
2022-08-17T06:36:16.053Z,2.17
2022-08-17T06:39:18.214Z,2.40
2022-08-17T06:43:01.967Z,2.57
2022-08-17T06:46:31.458Z,2.10
2022-08-17T06:49:50.572Z,2.00
2022-08-17T06:53:04.794Z,2.13
2022-08-17T06:56:18.482Z,1.88
2022-08-17T06:59:26.348Z,2.15
2022-08-17T07:02:52.579Z,2.22
2022-08-17T07:06:22.609Z,2.10
2022-08-17T07:09:44.739Z,2.00
2022-08-17T07:12:47.814Z,1.75
2022-08-17T07:15:56.521Z,2.13
2022-08-17T07:19:00.211Z,1.88
2022-08-17T07:22:15.340Z,2.13
2022-08-17T07:25:21.755Z,2.38
2022-08-17T07:28:24.053Z,1.83
2022-08-17T07:31:27.188Z,2.35
2022-08-17T07:34:29.296Z,2.00
2022-08-17T07:37:34.189Z,2.15
2022-08-17T07:41:06.361Z,2.10
2022-08-17T07:44:16.034Z,2.28
2022-08-17T07:47:36.379Z,2.38
2022-08-17T07:50:38.319Z,2.50
2022-08-17T07:53:41.919Z,2.20
2022-08-17T07:56:47.157Z,2.30
2022-08-17T08:00:01.279Z,2.10
2022-08-17T08:03:28.475Z,2.10
2022-08-17T08:06:30.644Z,2.20
2022-08-17T08:09:45.983Z,1.98
2022-08-17T08:12:53.761Z,1.92
2022-08-17T08:16:17.350Z,2.15
2022-08-17T08:19:21.075Z,1.85
2022-08-17T08:22:31.099Z,2.08
2022-08-17T08:25:53.597Z,1.88
2022-08-17T08:29:22.960Z,2.17
2022-08-17T08:32:48.413Z,1.77
2022-08-17T08:37:12.551Z,1.90
2022-08-17T08:40:20.622Z,1.65
2022-08-17T08:43:52.214Z,2.08
2022-08-17T08:47:08.631Z,1.80
2022-08-17T08:50:40.593Z,1.73
2022-08-17T08:54:09.068Z,1.90
2022-08-17T08:57:34.511Z,2.22
2022-08-17T09:00:41.643Z,1.90
2022-08-17T09:04:24.582Z,1.92
2022-08-17T09:07:41.418Z,2.25
2022-08-17T09:11:11.744Z,2.30
2022-08-17T09:14:32.690Z,2.00
2022-08-17T09:19:00.987Z,1.92
2022-08-17T09:22:12.174Z,2.00
2022-08-17T09:25:29.689Z,2.25
2022-08-17T09:28:36.900Z,2.10
2022-08-17T09:32:01.938Z,2.15
2022-08-17T09:35:13.193Z,1.90
2022-08-17T09:38:21.239Z,2.28
2022-08-17T09:41:32.099Z,2.20
2022-08-17T09:44:46.489Z,2.20
2022-08-17T09:48:02.922Z,2.03
2022-08-17T09:51:11.241Z,2.08
2022-08-17T09:54:39.197Z,2.53
2022-08-17T09:58:00.399Z,2.33
2022-08-17T10:01:25.960Z,2.50
2022-08-17T10:04:38.568Z,2.42
2022-08-17T10:07:56.204Z,2.33
2022-08-17T10:11:16.518Z,2.17
2022-08-17T10:14:44.164Z,2.28
2022-08-17T10:17:54.333Z,2.45
2022-08-17T10:21:25.897Z,2.13
2022-08-17T10:25:21.408Z,2.33
2022-08-17T10:28:19.760Z,2.40
2022-08-17T10:31:36.250Z,2.58
2022-08-17T10:34:47.968Z,2.30
2022-08-17T10:37:49.974Z,2.50
2022-08-17T10:40:56.224Z,2.22
2022-08-17T10:44:38.182Z,2.20
2022-08-17T10:47:56.182Z,2.55
2022-08-17T10:51:07.592Z,2.10
2022-08-17T10:54:24.970Z,2.38
2022-08-17T10:57:29.638Z,2.20
2022-08-17T11:00:40.717Z,2.35
2022-08-17T11:03:52.768Z,2.60
2022-08-17T11:07:09.188Z,2.40
2022-08-17T11:10:51.945Z,2.60
2022-08-17T11:14:10.365Z,1.95
2022-08-17T11:17:49.887Z,2.40
2022-08-17T11:21:28.081Z,2.30
2022-08-17T11:24:38.301Z,2.15
2022-08-17T11:27:41.204Z,2.63
2022-08-17T11:30:48.927Z,2.30
2022-08-17T11:33:56.117Z,2.35
2022-08-17T11:37:49.383Z,2.60
2022-08-17T11:41:10.180Z,2.28
2022-08-17T11:44:22.337Z,2.40
2022-08-17T11:47:42.878Z,2.10
2022-08-17T11:51:30.922Z,2.20
2022-08-17T11:54:46.010Z,2.17
2022-08-17T11:58:00.067Z,2.17
2022-08-17T12:01:13.590Z,2.17
2022-08-17T12:04:22.074Z,2.13
2022-08-17T12:07:24.098Z,2.30
2022-08-17T12:10:46.960Z,2.65
2022-08-17T12:13:52.910Z,2.22
2022-08-17T12:17:40.219Z,2.60
2022-08-17T12:20:44.487Z,2.08
2022-08-17T12:24:14.989Z,2.30
2022-08-17T12:27:47.626Z,2.10
2022-08-17T12:31:03.057Z,2.50
2022-08-17T12:34:27.157Z,2.65
2022-08-17T12:38:32.480Z,2.67
2022-08-17T12:41:57.424Z,2.33
2022-08-17T12:45:26.877Z,2.25
2022-08-17T12:48:36.292Z,2.28
2022-08-17T12:51:45.882Z,2.35
2022-08-17T12:55:18.185Z,2.47
2022-08-17T12:58:28.420Z,2.78
2022-08-17T13:01:35.140Z,2.42
2022-08-17T13:04:40.277Z,3.05
2022-08-17T13:07:42.842Z,2.42
2022-08-17T13:11:01.521Z,2.60
2022-08-17T13:14:10.762Z,2.65
2022-08-17T13:17:14.089Z,2.47
2022-08-17T13:20:16.266Z,2.67
2022-08-17T13:23:20.287Z,1.98
2022-08-17T13:26:48.047Z,2.25
2022-08-17T13:29:53.982Z,2.30
2022-08-17T13:32:57.667Z,2.30
2022-08-17T13:36:09.358Z,1.98
2022-08-17T13:39:24.352Z,2.33
2022-08-17T13:42:51.880Z,2.58
2022-08-17T13:46:11.350Z,2.58
2022-08-17T13:49:14.167Z,2.55
2022-08-17T13:52:35.156Z,2.28
2022-08-17T13:55:48.427Z,2.50
2022-08-17T13:58:52.576Z,2.42
2022-08-17T14:01:55.734Z,2.40
2022-08-17T14:04:58.842Z,2.58
2022-08-17T14:08:06.667Z,2.35
2022-08-17T14:11:09.267Z,2.30
2022-08-17T14:14:12.912Z,2.67
2022-08-17T14:17:15.103Z,2.30
2022-08-17T14:20:21.162Z,2.20
2022-08-17T14:23:23.570Z,2.70
2022-08-17T14:26:25.571Z,2.80
2022-08-17T14:29:29.334Z,2.30
2022-08-17T14:32:34.343Z,2.45
2022-08-17T14:35:36.414Z,2.75
2022-08-17T14:38:38.387Z,2.40
2022-08-17T14:41:41.816Z,2.42
2022-08-17T14:44:44.035Z,2.53
2022-08-17T14:47:46.650Z,2.25
2022-08-17T14:50:48.713Z,2.72
2022-08-17T14:53:50.826Z,2.13
2022-08-17T14:57:04.573Z,2.30
2022-08-17T15:00:16.900Z,2.15
2022-08-17T15:03:19.043Z,2.30
2022-08-17T15:06:22.671Z,2.33
2022-08-17T15:09:24.651Z,2.58
2022-08-17T15:12:32.021Z,2.70
2022-08-17T15:15:35.162Z,2.50
2022-08-17T15:18:37.062Z,2.67
2022-08-17T15:21:38.978Z,2.55
2022-08-17T15:24:40.909Z,2.40
2022-08-17T15:27:42.894Z,2.15
2022-08-17T15:30:45.100Z,2.38
2022-08-17T15:33:47.039Z,2.20
2022-08-17T15:36:49.625Z,2.17
2022-08-17T15:39:51.846Z,2.30
2022-08-17T15:42:54.208Z,2.45
2022-08-17T15:46:01.545Z,2.50
2022-08-17T15:49:03.536Z,2.28
2022-08-17T15:52:17.655Z,2.10
2022-08-17T15:55:24.020Z,2.60
2022-08-17T15:58:32.243Z,2.40
2022-08-17T16:03:15.877Z,2.40
2022-08-17T16:05:10.108Z,2.30
2022-08-17T16:08:15.888Z,2.10
2022-08-17T16:11:21.254Z,2.10
2022-08-17T16:14:24.563Z,2.13
2022-08-17T16:17:40.151Z,1.95
2022-08-17T16:20:43.080Z,2.25
2022-08-17T16:23:45.226Z,1.92
2022-08-17T16:26:47.183Z,2.15
2022-08-17T16:29:51.760Z,2.20
2022-08-17T16:32:59.783Z,2.30
2022-08-17T16:36:01.730Z,2.45
2022-08-17T16:39:04.892Z,2.38
2022-08-17T16:42:25.438Z,2.35
2022-08-17T16:45:29.687Z,2.50
2022-08-17T16:48:31.718Z,2.47
2022-08-17T16:51:33.698Z,2.50
2022-08-17T16:54:44.124Z,2.72
2022-08-17T16:57:50.318Z,2.40
2022-08-17T17:00:52.998Z,2.60
2022-08-17T17:03:58.262Z,2.97
2022-08-17T17:07:07.770Z,2.58
2022-08-17T17:10:18.019Z,2.70
2022-08-17T17:13:34.913Z,2.70
2022-08-17T17:16:47.888Z,2.28
2022-08-17T17:20:12.577Z,2.50
2022-08-17T17:23:41.728Z,2.90
2022-08-17T17:27:01.452Z,2.15
2022-08-17T17:30:27.971Z,2.45
2022-08-17T17:33:45.458Z,2.90
2022-08-17T17:36:51.726Z,2.80
2022-08-17T17:39:56.996Z,2.78
2022-08-17T17:43:14.539Z,2.47
2022-08-17T17:46:29.542Z,2.88
2022-08-17T17:49:45.258Z,2.42
2022-08-17T17:52:50.605Z,2.63
2022-08-17T17:56:07.562Z,2.35
2022-08-17T18:00:00.263Z,2.67
2022-08-17T18:03:11.737Z,2.50
2022-08-17T18:06:28.219Z,2.45
2022-08-17T18:09:54.003Z,2.83
2022-08-17T18:13:08.300Z,2.83
2022-08-17T18:16:14.263Z,2.88
2022-08-17T18:19:21.694Z,2.30
2022-08-17T18:22:24.283Z,2.83
2022-08-17T18:25:45.093Z,2.92
2022-08-17T18:28:51.158Z,3.08
2022-08-17T18:32:11.903Z,3.28
2022-08-17T18:35:16.864Z,3.33
2022-08-17T18:38:21.531Z,3.40
2022-08-17T18:41:30.528Z,3.03
2022-08-17T18:44:44.000Z,3.05
2022-08-17T18:47:55.028Z,3.40
2022-08-17T18:51:19.333Z,2.90
2022-08-17T18:54:24.474Z,3.05
2022-08-17T18:57:46.382Z,3.20
2022-08-17T19:00:49.455Z,2.65
2022-08-17T19:03:52.018Z,3.40
2022-08-17T19:07:05.234Z,3.08
2022-08-17T19:10:17.854Z,3.03
2022-08-17T19:13:44.728Z,2.92
2022-08-17T19:16:56.072Z,2.95
2022-08-17T19:20:04.368Z,3.08
2022-08-17T19:23:17.415Z,2.65
2022-08-17T19:26:54.479Z,3.13
2022-08-17T19:30:07.851Z,2.92
2022-08-17T19:33:10.952Z,2.80
2022-08-17T19:36:34.991Z,3.47
2022-08-17T19:39:46.191Z,3.30
2022-08-17T19:43:23.648Z,3.35
2022-08-17T19:46:26.300Z,3.00
2022-08-17T19:49:43.873Z,3.25
2022-08-17T19:53:21.169Z,3.13
2022-08-17T19:56:27.283Z,3.15
2022-08-17T19:59:53.790Z,3.40
2022-08-17T20:03:05.899Z,2.58
2022-08-17T20:06:13.364Z,2.90
2022-08-17T20:09:36.537Z,3.10
2022-08-17T20:12:40.783Z,3.22
2022-08-17T20:15:43.458Z,3.22
2022-08-17T20:19:05.993Z,3.20
2022-08-17T20:22:30.597Z,3.25
2022-08-17T20:25:59.665Z,2.95
2022-08-17T20:29:14.142Z,2.88
2022-08-17T20:32:23.994Z,2.70
2022-08-17T20:35:30.478Z,3.17
2022-08-17T20:38:50.868Z,3.38
2022-08-17T20:42:20.846Z,2.50
2022-08-17T20:45:23.721Z,2.53
2022-08-17T20:48:38.378Z,2.70
2022-08-17T20:52:09.154Z,3.15
2022-08-17T20:55:51.707Z,2.83
2022-08-17T20:58:55.808Z,3.55
2022-08-17T21:02:18.048Z,3.00
2022-08-17T21:05:34.231Z,3.13
2022-08-17T21:08:57.961Z,2.65
2022-08-17T21:12:05.347Z,2.97
2022-08-17T21:15:42.150Z,2.92
2022-08-17T21:19:08.969Z,3.40
2022-08-17T21:22:19.274Z,3.22
2022-08-17T21:25:24.892Z,3.15
2022-08-17T21:28:37.494Z,3.30
2022-08-17T21:32:00.488Z,3.13
2022-08-17T21:35:17.834Z,3.47
2022-08-17T21:38:22.733Z,2.95
2022-08-17T21:41:34.958Z,2.88
2022-08-17T21:44:38.421Z,2.97
2022-08-17T21:47:43.857Z,2.97
2022-08-17T21:51:33.738Z,3.13
2022-08-17T21:54:39.109Z,3.33
2022-08-17T21:57:55.422Z,3.08
2022-08-17T22:01:10.250Z,3.33
2022-08-17T22:04:12.228Z,3.40
2022-08-17T22:07:14.913Z,2.90
2022-08-17T22:10:38.948Z,3.50
2022-08-17T22:13:41.385Z,3.50
2022-08-17T22:16:43.604Z,3.03
2022-08-17T22:37:27.365Z,3.63
2022-08-17T22:40:32.751Z,3.20
2022-08-17T22:43:39.044Z,3.78
2022-08-17T22:47:19.840Z,3.17
2022-08-17T22:50:29.950Z,3.08
2022-08-17T22:53:50.283Z,3.03
2022-08-17T22:57:21.090Z,3.10
2022-08-17T23:00:37.729Z,3.28
2022-08-17T23:03:54.820Z,2.88
2022-08-17T23:06:57.047Z,3.33
2022-08-17T23:10:02.291Z,3.92
2022-08-17T23:13:04.832Z,3.40
2022-08-17T23:16:06.841Z,3.40
2022-08-17T23:19:10.411Z,3.58
2022-08-17T23:22:12.415Z,3.30
2022-08-17T23:25:18.224Z,3.00
2022-08-17T23:28:22.837Z,3.50
2022-08-17T23:31:25.783Z,3.50
2022-08-17T23:34:28.917Z,3.55
2022-08-17T23:37:31.596Z,3.40
2022-08-17T23:40:34.178Z,3.70
2022-08-17T23:43:36.571Z,3.45
2022-08-17T23:46:39.491Z,3.47
2022-08-17T23:49:41.942Z,4.10
2022-08-17T23:52:44.227Z,3.63
2022-08-17T23:55:46.311Z,3.38
2022-08-17T23:59:08.356Z,3.63
